Time;durP1;ratioP1;P1;durP2;ratioP2;P2;SDS_P1;SDS_P2;PMS_P1;PMS_P2;Temp;Humidity;BMP_temperature;BMP_pressure;BME280_temperature;BME280_humidity;BME280_pressure;Samples;Min_cycle;Max_cycle;Signal;HPM_P1;HPM_P2
2021/09/25 00:01:23;;;;;;;17.57;16.13;;;11.20;99.90;;;;;;5034232;28;20774;-94
2021/09/25 00:03:51;;;;;;;15.43;14.10;;;11.20;99.90;;;;;;5035647;28;20635;-95
2021/09/25 00:06:20;;;;;;;13.23;12.23;;;11.20;99.90;;;;;;5034611;28;20635;-94
2021/09/25 00:08:47;;;;;;;15.93;14.63;;;11.10;99.90;;;;;;5032035;28;20730;-95
2021/09/25 00:11:15;;;;;;;17.50;16.00;;;11.10;99.90;;;;;;5035645;28;20689;-95
2021/09/25 00:13:43;;;;;;;17.87;16.23;;;11.20;99.90;;;;;;5007998;28;20627;-95
2021/09/25 00:16:11;;;;;;;17.73;16.23;;;11.20;99.90;;;;;;5032885;28;20718;-94
2021/09/25 00:18:39;;;;;;;15.90;14.70;;;11.20;99.90;;;;;;5036439;28;20643;-95
2021/09/25 00:21:08;;;;;;;17.30;15.90;;;11.10;99.90;;;;;;5040713;28;20654;-96
2021/09/25 00:23:42;;;;;;;17.30;16.03;;;11.10;99.90;;;;;;5038245;28;20619;-96
2021/09/25 00:26:11;;;;;;;17.03;15.53;;;11.10;99.90;;;;;;5042286;28;20729;-96
2021/09/25 00:28:43;;;;;;;16.67;15.37;;;11.10;99.90;;;;;;5019426;28;20619;-96
2021/09/25 00:31:11;;;;;;;16.53;15.20;;;11.10;99.90;;;;;;5036098;28;20705;-96
2021/09/25 00:33:38;;;;;;;16.33;15.13;;;11.00;99.90;;;;;;5036137;28;20730;-96
2021/09/25 00:36:06;;;;;;;17.13;15.63;;;10.90;99.90;;;;;;5037581;28;20659;-96
2021/09/25 00:38:33;;;;;;;18.70;17.13;;;10.90;99.90;;;;;;5034710;28;20674;-96
2021/09/25 00:41:02;;;;;;;19.20;17.80;;;10.90;99.90;;;;;;5031225;28;20662;-95
2021/09/25 00:43:29;;;;;;;19.03;17.30;;;10.90;99.90;;;;;;5028859;28;21087;-96
2021/09/25 00:45:56;;;;;;;15.70;14.27;;;10.90;99.90;;;;;;5035204;28;20635;-96
2021/09/25 00:48:26;;;;;;;17.67;16.07;;;10.90;99.90;;;;;;5035084;28;21179;-96
2021/09/25 00:50:53;;;;;;;17.40;16.00;;;10.90;99.90;;;;;;5035764;28;21095;-96
2021/09/25 00:53:20;;;;;;;19.40;17.80;;;10.90;99.90;;;;;;5031009;28;20721;-95
2021/09/25 00:55:48;;;;;;;18.90;17.50;;;10.90;99.90;;;;;;5036639;28;20686;-95
2021/09/25 00:58:18;;;;;;;20.57;18.80;;;10.90;99.90;;;;;;5048581;28;21208;-96
2021/09/25 01:00:46;;;;;;;18.37;16.87;;;10.90;99.90;;;;;;5046265;28;20698;-95
2021/09/25 01:03:16;;;;;;;17.73;16.30;;;10.90;99.90;;;;;;5050203;28;20663;-96
2021/09/25 01:05:55;;;;;;;18.00;16.63;;;10.70;99.90;;;;;;5041431;28;20649;-96
2021/09/25 01:08:24;;;;;;;18.20;16.80;;;10.70;99.90;;;;;;5054505;28;20657;-96
2021/09/25 01:10:53;;;;;;;20.07;18.47;;;10.70;99.90;;;;;;5039903;28;20749;-96
2021/09/25 01:13:24;;;;;;;20.40;18.43;;;10.70;99.90;;;;;;5035065;28;20641;-95
2021/09/25 01:15:52;;;;;;;17.70;16.30;;;10.70;99.90;;;;;;5037054;28;20650;-96
2021/09/25 01:18:22;;;;;;;16.93;15.63;;;10.60;99.90;;;;;;5035962;28;20729;-95
2021/09/25 01:20:50;;;;;;;18.33;16.83;;;10.60;99.90;;;;;;5035807;28;21010;-96
2021/09/25 01:23:39;;;;;;;18.90;17.40;;;10.50;99.90;;;;;;5054118;28;20645;-95
2021/09/25 01:26:08;;;;;;;18.13;16.80;;;10.60;99.90;;;;;;5050873;28;20726;-95
2021/09/25 01:28:38;;;;;;;19.87;18.27;;;10.60;99.90;;;;;;5042880;28;20650;-96
2021/09/25 01:31:07;;;;;;;19.10;17.63;;;10.60;99.90;;;;;;5043269;28;20734;-96
2021/09/25 01:33:38;;;;;;;17.43;16.03;;;10.50;99.90;;;;;;5053074;28;20637;-96
2021/09/25 01:36:05;;;;;;;19.27;17.83;;;10.50;99.90;;;;;;5052972;28;20649;-96
2021/09/25 01:38:36;;;;;;;18.33;16.93;;;10.50;99.90;;;;;;5061379;28;20611;-96
2021/09/25 01:41:04;;;;;;;21.00;19.40;;;10.50;99.90;;;;;;5048480;28;20658;-95
2021/09/25 01:43:33;;;;;;;19.93;18.43;;;10.50;99.90;;;;;;5036505;28;20770;-92
2021/09/25 01:46:01;;;;;;;20.10;18.50;;;10.40;99.90;;;;;;5028445;28;20627;-92
2021/09/25 01:48:28;;;;;;;20.80;18.97;;;10.40;99.90;;;;;;5032170;28;20654;-92
2021/09/25 01:50:55;;;;;;;19.03;17.63;;;10.40;99.90;;;;;;5032653;28;20658;-93
2021/09/25 01:53:23;;;;;;;19.70;18.13;;;10.40;99.90;;;;;;5028502;28;20639;-94
2021/09/25 01:55:54;;;;;;;19.87;17.50;;;10.40;99.90;;;;;;5031001;28;20670;-93
2021/09/25 01:58:21;;;;;;;20.40;18.67;;;10.30;99.90;;;;;;5029835;28;21104;-93
2021/09/25 02:00:48;;;;;;;18.77;17.13;;;10.30;99.90;;;;;;5031479;28;20874;-93
2021/09/25 02:03:23;;;;;;;19.47;17.77;;;10.20;99.90;;;;;;5032589;28;20626;-93
2021/09/25 02:05:50;;;;;;;18.70;17.20;;;10.30;99.90;;;;;;5030750;28;20790;-93
2021/09/25 02:08:17;;;;;;;18.93;17.53;;;10.20;99.90;;;;;;5026907;28;20622;-93
2021/09/25 02:10:44;;;;;;;18.70;17.30;;;10.30;99.90;;;;;;5026986;28;20649;-93
2021/09/25 02:13:12;;;;;;;20.37;18.77;;;10.20;99.90;;;;;;5032065;28;20622;-93
2021/09/25 02:15:39;;;;;;;19.63;17.93;;;10.30;99.90;;;;;;5029841;28;20698;-94
2021/09/25 02:18:06;;;;;;;20.90;19.10;;;10.30;99.90;;;;;;5030719;28;20714;-93
2021/09/25 02:20:33;;;;;;;20.03;18.43;;;10.20;99.90;;;;;;5026387;28;20662;-93
2021/09/25 02:23:00;;;;;;;20.67;18.73;;;10.20;99.90;;;;;;5015010;28;20734;-93
2021/09/25 02:25:27;;;;;;;20.47;18.67;;;10.30;99.90;;;;;;5028992;28;20618;-91
2021/09/25 02:27:55;;;;;;;19.30;17.80;;;10.10;99.90;;;;;;5027636;28;20637;-92
2021/09/25 02:30:23;;;;;;;19.60;18.00;;;10.10;99.90;;;;;;5024588;28;20643;-91
2021/09/25 02:32:50;;;;;;;19.87;18.27;;;10.10;99.90;;;;;;5032570;28;20681;-90
2021/09/25 02:35:20;;;;;;;18.97;17.47;;;10.10;99.90;;;;;;5032881;28;21234;-91
2021/09/25 02:37:48;;;;;;;17.80;16.17;;;10.10;99.90;;;;;;5029577;28;20729;-93
2021/09/25 02:40:16;;;;;;;16.90;15.70;;;10.00;99.90;;;;;;5034852;28;20662;-94
2021/09/25 02:42:44;;;;;;;17.73;16.37;;;9.90;99.90;;;;;;5039787;28;20665;-91
2021/09/25 02:45:12;;;;;;;17.30;15.90;;;10.00;99.90;;;;;;5032267;28;20630;-92
2021/09/25 02:47:40;;;;;;;16.40;15.00;;;10.00;99.90;;;;;;5031534;28;20662;-92
2021/09/25 02:50:10;;;;;;;15.83;14.53;;;10.00;99.90;;;;;;5029024;28;20670;-93
2021/09/25 02:52:37;;;;;;;15.37;14.17;;;9.90;99.90;;;;;;5031773;28;20637;-93
2021/09/25 02:55:05;;;;;;;13.90;12.70;;;9.90;99.90;;;;;;5030897;28;21021;-92
2021/09/25 02:57:33;;;;;;;14.93;13.73;;;9.90;99.90;;;;;;5031758;28;20675;-92
2021/09/25 03:00:00;;;;;;;14.23;13.13;;;9.90;99.90;;;;;;5032087;28;20666;-92
2021/09/25 03:02:27;;;;;;;14.60;13.50;;;9.90;99.90;;;;;;5029443;28;20646;-92
2021/09/25 03:04:55;;;;;;;15.73;14.53;;;9.90;99.90;;;;;;5030013;28;20647;-92
2021/09/25 03:07:22;;;;;;;14.83;13.60;;;9.90;99.90;;;;;;5024067;28;20676;-92
2021/09/25 03:09:49;;;;;;;15.03;13.83;;;9.90;99.90;;;;;;5028301;28;20740;-92
2021/09/25 03:12:16;;;;;;;15.10;13.80;;;9.90;99.90;;;;;;5027630;28;20663;-93
2021/09/25 03:14:43;;;;;;;15.37;13.97;;;10.00;99.90;;;;;;5031296;28;20619;-92
2021/09/25 03:17:10;;;;;;;16.30;14.90;;;10.00;99.90;;;;;;5031421;28;21171;-92
2021/09/25 03:19:37;;;;;;;15.40;14.20;;;9.90;99.90;;;;;;5028574;28;21574;-92
2021/09/25 03:22:06;;;;;;;15.27;14.17;;;9.80;99.90;;;;;;5028192;28;20647;-92
2021/09/25 03:24:33;;;;;;;13.70;12.60;;;9.80;99.90;;;;;;5027130;28;20668;-92
2021/09/25 03:27:00;;;;;;;14.37;13.03;;;9.80;99.90;;;;;;5030183;28;20989;-92
2021/09/25 03:29:26;;;;;;;13.63;12.47;;;9.70;99.90;;;;;;5029838;28;21368;-92
2021/09/25 03:31:53;;;;;;;13.00;12.00;;;9.70;99.90;;;;;;5030669;28;20642;-92
2021/09/25 03:34:21;;;;;;;13.93;12.83;;;9.60;99.90;;;;;;5010351;28;21358;-93
2021/09/25 03:36:49;;;;;;;14.80;13.53;;;9.60;99.90;;;;;;5029309;28;20770;-93
2021/09/25 03:39:17;;;;;;;13.10;12.00;;;9.50;99.90;;;;;;5028339;28;20661;-91
2021/09/25 03:41:44;;;;;;;14.10;13.10;;;9.50;99.90;;;;;;5030369;28;20639;-93
2021/09/25 03:44:11;;;;;;;12.30;11.30;;;9.60;99.90;;;;;;5029432;28;21355;-92
2021/09/25 03:46:38;;;;;;;14.00;13.00;;;9.60;99.90;;;;;;5028838;28;21200;-92
2021/09/25 03:49:05;;;;;;;13.40;12.20;;;9.60;99.90;;;;;;5035662;28;20619;-92
2021/09/25 03:51:32;;;;;;;13.70;12.60;;;9.60;99.90;;;;;;5029709;28;21145;-91
2021/09/25 03:54:00;;;;;;;13.10;12.10;;;9.60;99.90;;;;;;5030304;28;21215;-93
2021/09/25 03:56:29;;;;;;;13.33;12.33;;;9.60;99.90;;;;;;5028845;28;21244;-92
2021/09/25 03:58:55;;;;;;;13.10;12.00;;;9.50;99.90;;;;;;5034354;28;20649;-92
2021/09/25 04:01:22;;;;;;;12.90;12.00;;;9.50;99.90;;;;;;5029544;28;21023;-93
2021/09/25 04:03:49;;;;;;;12.40;11.37;;;9.50;99.90;;;;;;5028602;28;20634;-93
2021/09/25 04:06:17;;;;;;;13.37;12.30;;;9.50;99.90;;;;;;5028682;28;20619;-92
2021/09/25 04:08:44;;;;;;;13.70;12.50;;;9.60;99.90;;;;;;5026758;28;20661;-92
2021/09/25 04:11:11;;;;;;;14.50;13.40;;;9.50;99.90;;;;;;5027605;28;20659;-93
2021/09/25 04:13:39;;;;;;;13.93;12.80;;;9.50;99.90;;;;;;5028154;28;21324;-93
2021/09/25 04:16:06;;;;;;;13.47;12.37;;;9.50;99.90;;;;;;5027162;28;20669;-92
2021/09/25 04:18:39;;;;;;;11.47;10.67;;;9.40;99.90;;;;;;5031360;28;20638;-93
2021/09/25 04:21:06;;;;;;;13.50;12.40;;;9.40;99.90;;;;;;5028989;28;20641;-92
2021/09/25 04:23:33;;;;;;;12.13;11.33;;;9.30;99.90;;;;;;5031478;28;20630;-93
2021/09/25 04:26:00;;;;;;;13.67;12.50;;;9.30;99.90;;;;;;5034938;28;20642;-94
2021/09/25 04:28:27;;;;;;;12.63;11.70;;;9.30;99.90;;;;;;5028137;28;20638;-93
2021/09/25 04:30:56;;;;;;;13.43;12.40;;;9.30;99.90;;;;;;5027352;28;20750;-94
2021/09/25 04:33:23;;;;;;;13.77;12.77;;;9.30;99.90;;;;;;5021537;28;20735;-93
2021/09/25 04:35:49;;;;;;;12.47;11.37;;;9.30;99.90;;;;;;5010560;28;20670;-92
2021/09/25 04:38:17;;;;;;;12.83;11.83;;;9.20;99.90;;;;;;5034273;28;20629;-94
2021/09/25 04:40:47;;;;;;;13.33;11.83;;;9.20;99.90;;;;;;5032250;28;20654;-93
2021/09/25 04:43:15;;;;;;;12.93;11.83;;;9.20;99.90;;;;;;5030580;28;20726;-94
2021/09/25 04:45:48;;;;;;;13.10;11.90;;;9.10;99.90;;;;;;5032992;28;20649;-94
2021/09/25 04:48:16;;;;;;;12.30;11.30;;;9.20;99.90;;;;;;5032343;28;20630;-93
2021/09/25 04:50:44;;;;;;;12.13;11.23;;;9.20;99.90;;;;;;5032748;28;20996;-94
2021/09/25 04:53:15;;;;;;;12.40;11.30;;;9.10;99.90;;;;;;5030500;28;20635;-93
2021/09/25 04:55:42;;;;;;;12.50;11.50;;;9.10;99.90;;;;;;5032298;28;20683;-93
2021/09/25 04:58:09;;;;;;;12.33;11.37;;;9.10;99.90;;;;;;5034906;28;20627;-93
2021/09/25 05:00:37;;;;;;;12.40;11.40;;;9.10;99.90;;;;;;5051363;28;20662;-93
2021/09/25 05:03:05;;;;;;;12.50;11.40;;;9.10;99.90;;;;;;5050470;28;20807;-93
2021/09/25 05:05:37;;;;;;;15.07;13.77;;;9.10;99.90;;;;;;5031689;28;20619;-93
2021/09/25 05:08:04;;;;;;;14.17;13.07;;;9.10;99.90;;;;;;5030018;28;20623;-94
2021/09/25 05:10:33;;;;;;;14.30;13.10;;;9.10;99.90;;;;;;5028456;28;20630;-94
2021/09/25 05:13:00;;;;;;;13.90;12.80;;;9.10;99.90;;;;;;5026731;28;20630;-93
2021/09/25 05:15:28;;;;;;;12.50;11.60;;;9.10;99.90;;;;;;5024178;28;21504;-93
2021/09/25 05:17:55;;;;;;;12.47;11.57;;;9.20;99.90;;;;;;5027452;28;20741;-93
2021/09/25 05:20:25;;;;;;;13.80;12.50;;;9.10;99.90;;;;;;5026591;28;20659;-93
2021/09/25 05:22:55;;;;;;;12.90;11.90;;;9.10;99.90;;;;;;5032693;28;20643;-93
2021/09/25 05:25:23;;;;;;;13.97;12.97;;;9.10;99.90;;;;;;5030294;28;20626;-94
2021/09/25 05:27:50;;;;;;;15.80;14.50;;;9.20;99.90;;;;;;5030820;28;20634;-93
2021/09/25 05:30:18;;;;;;;16.90;15.57;;;9.30;99.90;;;;;;5031423;28;20676;-94
2021/09/25 05:32:52;;;;;;;15.50;14.30;;;9.40;99.90;;;;;;5030437;28;21082;-93
2021/09/25 05:35:20;;;;;;;14.97;13.87;;;9.50;99.90;;;;;;5023094;28;20682;-92
2021/09/25 05:37:47;;;;;;;16.17;14.80;;;9.50;99.90;;;;;;5023574;28;20741;-93
2021/09/25 05:40:16;;;;;;;16.23;14.93;;;9.50;99.90;;;;;;5026935;28;20718;-93
2021/09/25 05:42:46;;;;;;;14.67;13.37;;;9.40;99.90;;;;;;5029179;28;20659;-93
2021/09/25 05:45:16;;;;;;;15.07;13.77;;;9.40;99.90;;;;;;5033502;28;20745;-94
2021/09/25 05:47:44;;;;;;;15.23;14.03;;;9.40;99.90;;;;;;5026569;28;20642;-94
2021/09/25 05:50:12;;;;;;;17.13;15.83;;;9.50;99.90;;;;;;5022851;28;20672;-93
2021/09/25 05:52:50;;;;;;;15.50;14.40;;;9.50;99.90;;;;;;5034883;28;20615;-93
2021/09/25 05:55:20;;;;;;;14.97;13.63;;;9.50;99.90;;;;;;5032216;28;20634;-93
2021/09/25 05:57:49;;;;;;;14.20;13.10;;;9.60;99.90;;;;;;5032606;28;20666;-94
2021/09/25 06:00:18;;;;;;;13.10;12.20;;;9.50;99.90;;;;;;5033332;28;20704;-94
2021/09/25 06:02:46;;;;;;;15.00;13.90;;;9.50;99.90;;;;;;5027549;28;20639;-94
2021/09/25 06:05:15;;;;;;;14.40;13.40;;;9.50;99.90;;;;;;5033628;28;20742;-94
2021/09/25 06:07:45;;;;;;;15.60;14.40;;;9.60;99.90;;;;;;5011086;28;20622;-94
2021/09/25 06:10:16;;;;;;;14.30;13.23;;;9.70;99.90;;;;;;5030274;28;20658;-92
2021/09/25 06:12:46;;;;;;;14.73;13.63;;;9.70;99.90;;;;;;5024958;28;20630;-92
2021/09/25 06:15:13;;;;;;;17.07;15.73;;;9.70;99.90;;;;;;5032640;28;20666;-92
2021/09/25 06:17:49;;;;;;;15.37;14.07;;;9.80;99.90;;;;;;5034317;28;20663;-93
2021/09/25 06:20:22;;;;;;;16.70;15.23;;;9.90;99.90;;;;;;5039818;28;20657;-93
2021/09/25 06:22:49;;;;;;;17.33;15.97;;;10.00;99.90;;;;;;5040700;28;21069;-92
2021/09/25 06:25:18;;;;;;;17.93;16.30;;;10.00;99.90;;;;;;5038819;28;20638;-92
2021/09/25 06:28:19;;;;;;;16.53;15.23;;;10.10;99.90;;;;;;5032246;28;20669;-91
2021/09/25 06:30:54;;;;;;;17.87;16.50;;;10.20;99.90;;;;;;5029802;28;20666;-91
2021/09/25 06:33:35;;;;;;;17.40;15.73;;;10.30;99.90;;;;;;5033267;28;20634;-93
2021/09/25 06:36:04;;;;;;;16.13;14.77;;;10.40;99.90;;;;;;5027417;28;20622;-91
2021/09/25 06:38:32;;;;;;;16.60;15.30;;;10.50;99.90;;;;;;5033232;28;20666;-91
2021/09/25 06:40:58;;;;;;;16.23;14.93;;;10.60;99.90;;;;;;5033661;28;20667;-91
2021/09/25 06:43:27;;;;;;;15.93;14.73;;;10.80;99.90;;;;;;5032454;28;20633;-93
2021/09/25 06:45:56;;;;;;;16.50;15.23;;;11.00;99.90;;;;;;5030076;28;20634;-93
2021/09/25 06:48:44;;;;;;;16.77;15.33;;;11.00;99.90;;;;;;5036680;28;20628;-93
2021/09/25 06:51:17;;;;;;;14.90;13.70;;;11.10;99.90;;;;;;5034521;28;20635;-92
2021/09/25 06:53:44;;;;;;;15.67;14.03;;;11.00;99.90;;;;;;5036964;28;20642;-93
2021/09/25 06:56:11;;;;;;;15.10;13.90;;;11.10;99.90;;;;;;5033443;28;20988;-94
2021/09/25 06:58:53;;;;;;;16.13;14.70;;;11.20;99.90;;;;;;5026777;28;20647;-93
2021/09/25 07:01:22;;;;;;;14.67;13.47;;;11.20;99.90;;;;;;5031537;28;20675;-93
2021/09/25 07:03:48;;;;;;;14.63;13.43;;;11.40;99.90;;;;;;5035676;28;20734;-93
2021/09/25 07:06:24;;;;;;;14.27;13.17;;;11.50;99.90;;;;;;5038357;28;20732;-93
2021/09/25 07:08:51;;;;;;;14.33;12.90;;;11.70;99.90;;;;;;5039833;28;20978;-92
2021/09/25 07:11:19;;;;;;;14.10;12.87;;;11.70;99.90;;;;;;5042106;28;20673;-94
2021/09/25 07:13:47;;;;;;;14.30;13.20;;;11.90;99.90;;;;;;5055402;28;20658;-93
2021/09/25 07:16:14;;;;;;;13.43;12.10;;;12.00;99.90;;;;;;5055777;28;20649;-92
2021/09/25 07:18:42;;;;;;;12.07;11.17;;;12.10;99.90;;;;;;5056532;28;22007;-94
2021/09/25 07:21:10;;;;;;;11.97;11.07;;;12.20;99.90;;;;;;5055394;28;20655;-92
2021/09/25 07:23:37;;;;;;;12.33;11.30;;;12.30;99.90;;;;;;5055312;28;20625;-94
2021/09/25 07:26:05;;;;;;;11.87;11.00;;;12.50;99.90;;;;;;5043114;28;20636;-93
2021/09/25 07:28:34;;;;;;;12.17;11.17;;;12.70;99.90;;;;;;5035554;28;20639;-93
2021/09/25 07:31:02;;;;;;;10.80;9.90;;;12.90;99.90;;;;;;5032708;28;20642;-93
2021/09/25 07:39:32;;;;;;;10.37;9.47;;;13.20;99.90;;;;;;5039817;28;20685;-92
2021/09/25 07:42:05;;;;;;;11.13;10.30;;;13.30;99.90;;;;;;5041864;28;20677;-93
2021/09/25 07:47:30;;;;;;;;;;;;;;;;;;;;;
2021/09/25 07:50:02;;;;;;;9.80;8.90;;;13.80;99.90;;;;;;5053547;28;20689;-93
2021/09/25 07:52:29;;;;;;;10.73;9.83;;;14.00;99.90;;;;;;5033468;28;20685;-93
2021/09/25 07:55:27;;;;;;;11.23;10.33;;;14.10;99.90;;;;;;5048591;28;20623;-95
2021/09/25 07:58:04;;;;;;;9.40;8.70;;;14.20;99.90;;;;;;5045868;28;20674;-94
2021/09/25 08:00:38;;;;;;;9.87;9.07;;;14.30;99.90;;;;;;5035156;28;20631;-93
2021/09/25 08:08:34;;;;;;;10.33;8.60;;;14.90;99.90;;;;;;5035573;28;20630;-93
2021/09/25 08:11:09;;;;;;;9.50;8.80;;;15.20;99.90;;;;;;5041276;28;20631;-92
2021/09/25 08:13:40;;;;;;;9.67;8.77;;;15.40;99.90;;;;;;5041513;28;21085;-93
2021/09/25 08:16:07;;;;;;;10.30;8.47;;;15.40;99.90;;;;;;5040354;28;20633;-92
2021/09/25 08:18:35;;;;;;;8.80;8.10;;;15.30;99.90;;;;;;5033285;28;20689;-93
2021/09/25 08:21:02;;;;;;;8.43;7.63;;;15.60;99.90;;;;;;5028511;28;20649;-86
2021/09/25 08:23:29;;;;;;;8.60;7.90;;;15.70;99.90;;;;;;5023570;28;21288;-86
2021/09/25 08:25:56;;;;;;;9.07;8.37;;;15.70;99.90;;;;;;5031447;28;21076;-86
2021/09/25 08:28:23;;;;;;;9.03;8.23;;;15.90;99.90;;;;;;5023936;28;20615;-85
2021/09/25 08:30:52;;;;;;;8.17;7.47;;;16.20;99.90;;;;;;5022128;28;20635;-85
2021/09/25 08:33:20;;;;;;;7.77;7.10;;;16.40;99.90;;;;;;5024486;28;20627;-85
2021/09/25 08:35:48;;;;;;;8.23;7.63;;;16.60;99.90;;;;;;5020045;28;20616;-85
2021/09/25 08:38:15;;;;;;;12.93;8.30;;;16.60;99.90;;;;;;5023361;28;20774;-84
2021/09/25 08:40:42;;;;;;;8.23;7.63;;;16.80;99.90;;;;;;5025132;28;20631;-85
2021/09/25 08:43:10;;;;;;;9.03;8.10;;;17.00;99.90;;;;;;5032922;28;20663;-85
2021/09/25 08:45:37;;;;;;;7.23;6.53;;;17.00;99.90;;;;;;5024325;28;20592;-86
2021/09/25 08:48:06;;;;;;;7.57;6.83;;;17.30;99.90;;;;;;5022791;28;21279;-86
2021/09/25 08:50:33;;;;;;;8.20;7.60;;;17.40;99.90;;;;;;5024224;28;20638;-86
2021/09/25 08:53:00;;;;;;;7.37;6.67;;;17.50;99.90;;;;;;5025570;28;20659;-86
2021/09/25 08:55:26;;;;;;;8.33;7.70;;;17.40;99.90;;;;;;5025586;28;20623;-86
2021/09/25 08:57:53;;;;;;;7.93;7.13;;;17.40;99.90;;;;;;5027049;28;20677;-85
2021/09/25 09:00:40;;;;;;;12.50;8.37;;;17.40;99.90;;;;;;5024373;28;21567;-86
2021/09/25 09:03:30;;;;;;;8.00;7.40;;;17.80;99.90;;;;;;5024907;28;20642;-86
2021/09/25 09:06:05;;;;;;;7.53;6.83;;;18.10;99.90;;;;;;5022031;28;20623;-86
2021/09/25 09:08:33;;;;;;;9.03;8.10;;;18.20;99.90;;;;;;5025135;28;20622;-86
2021/09/25 09:11:00;;;;;;;7.90;7.20;;;18.30;99.90;;;;;;5022414;28;21177;-85
2021/09/25 09:13:27;;;;;;;7.37;6.67;;;18.40;99.90;;;;;;5022146;28;20614;-85
2021/09/25 09:15:54;;;;;;;7.50;5.67;;;18.70;99.90;;;;;;5021130;28;20637;-86
2021/09/25 09:18:23;;;;;;;7.23;6.57;;;18.80;99.90;;;;;;5023199;28;20658;-86
2021/09/25 09:21:13;;;;;;;7.50;6.80;;;18.90;99.90;;;;;;5023826;28;21031;-86
2021/09/25 09:23:45;;;;;;;7.13;6.63;;;18.70;99.90;;;;;;5026822;28;20618;-87
2021/09/25 09:26:16;;;;;;;7.27;6.67;;;18.60;99.90;;;;;;5022955;28;20588;-85
2021/09/25 09:28:43;;;;;;;6.30;5.80;;;19.10;99.90;;;;;;5026462;28;20705;-84
2021/09/25 09:31:11;;;;;;;5.70;5.10;;;19.20;99.90;;;;;;5030964;28;20631;-85
2021/09/25 09:33:41;;;;;;;5.43;5.00;;;19.20;99.90;;;;;;5027801;28;20631;-85
2021/09/25 09:36:14;;;;;;;6.60;5.43;;;19.80;99.90;;;;;;5025588;28;20622;-85
2021/09/25 09:38:42;;;;;;;5.40;5.00;;;19.90;99.90;;;;;;5025367;28;20670;-85
2021/09/25 09:41:09;;;;;;;6.57;5.90;;;20.10;99.90;;;;;;5024695;28;20645;-85
2021/09/25 09:43:37;;;;;;;8.50;6.20;;;20.10;99.90;;;;;;5026395;28;21356;-85
2021/09/25 09:46:04;;;;;;;6.40;5.83;;;20.10;99.90;;;;;;5027223;28;20733;-85
2021/09/25 09:48:31;;;;;;;6.90;6.30;;;20.50;99.90;;;;;;5028171;28;20978;-86
2021/09/25 09:50:58;;;;;;;8.33;5.37;;;20.60;99.90;;;;;;5029644;28;20629;-84
2021/09/25 09:53:31;;;;;;;7.03;4.90;;;20.90;99.90;;;;;;5028619;28;20677;-85
2021/09/25 09:56:23;;;;;;;5.40;4.90;;;21.20;99.90;;;;;;5028218;28;20695;-84
2021/09/25 09:59:01;;;;;;;7.83;4.77;;;21.20;99.90;;;;;;5025350;28;20738;-85
2021/09/25 10:01:29;;;;;;;5.23;4.70;;;21.50;99.90;;;;;;5026706;28;21245;-84
2021/09/25 10:03:56;;;;;;;5.80;5.30;;;21.90;99.90;;;;;;5025857;28;20997;-84
2021/09/25 10:06:23;;;;;;;6.10;5.03;;;22.30;99.90;;;;;;5025295;28;20639;-84
2021/09/25 10:08:51;;;;;;;5.40;4.90;;;22.40;99.90;;;;;;5032749;28;20630;-84
2021/09/25 10:11:18;;;;;;;5.77;5.27;;;22.50;99.90;;;;;;5025710;28;20649;-85
2021/09/25 10:13:46;;;;;;;5.63;5.20;;;22.70;99.90;;;;;;5025051;28;20649;-85
2021/09/25 10:16:14;;;;;;;9.97;5.57;;;22.70;99.90;;;;;;5025410;28;20635;-85
2021/09/25 10:18:42;;;;;;;5.13;4.70;;;22.70;99.90;;;;;;5026414;28;20716;-85
2021/09/25 10:21:10;;;;;;;6.03;5.43;;;22.80;99.90;;;;;;5027147;28;21277;-86
2021/09/25 10:23:40;;;;;;;5.10;4.70;;;23.50;99.90;;;;;;5027734;28;20650;-86
2021/09/25 10:26:10;;;;;;;5.40;4.90;;;23.60;99.90;;;;;;5023884;28;20692;-86
2021/09/25 10:28:36;;;;;;;5.40;4.90;;;23.50;99.70;;;;;;5022829;28;20611;-86
2021/09/25 10:31:03;;;;;;;5.13;4.73;;;23.80;98.20;;;;;;5025892;28;20634;-86
2021/09/25 10:33:30;;;;;;;5.30;4.80;;;23.50;98.10;;;;;;5028896;28;21173;-85
2021/09/25 10:35:57;;;;;;;4.33;3.93;;;23.80;97.00;;;;;;5023587;28;20637;-85
2021/09/25 10:38:36;;;;;;;10.47;4.40;;;24.20;95.60;;;;;;5023942;28;20667;-86
2021/09/25 10:41:19;;;;;;;4.50;4.13;;;24.60;95.50;;;;;;5025800;28;20622;-85
2021/09/25 10:43:48;;;;;;;4.43;4.13;;;24.50;94.00;;;;;;5025938;28;20628;-86
2021/09/25 10:46:16;;;;;;;4.73;4.33;;;24.70;94.60;;;;;;5025798;28;20722;-85
2021/09/25 10:48:52;;;;;;;4.17;3.90;;;24.90;93.40;;;;;;5025622;28;20619;-85
2021/09/25 10:51:21;;;;;;;4.63;3.50;;;25.30;92.10;;;;;;5025982;28;20650;-85
2021/09/25 10:53:50;;;;;;;6.70;4.87;;;25.60;91.70;;;;;;5022913;28;20659;-86
2021/09/25 10:56:21;;;;;;;3.80;3.50;;;25.70;90.60;;;;;;5024350;28;21380;-86
2021/09/25 10:58:55;;;;;;;4.80;4.40;;;25.70;90.90;;;;;;5007543;28;20666;-85
2021/09/25 11:01:33;;;;;;;4.27;3.87;;;25.70;91.60;;;;;;5021084;28;21026;-85
2021/09/25 11:04:19;;;;;;;4.13;3.83;;;25.90;90.50;;;;;;5025172;28;20611;-86
2021/09/25 11:06:52;;;;;;;5.57;3.73;;;26.10;90.10;;;;;;5024798;28;20619;-85
2021/09/25 11:09:35;;;;;;;4.33;3.60;;;26.50;86.70;;;;;;5025208;28;20623;-84
2021/09/25 11:12:10;;;;;;;5.20;4.70;;;26.70;85.40;;;;;;5024818;28;21084;-85
2021/09/25 11:14:42;;;;;;;4.60;4.23;;;26.30;86.00;;;;;;5023346;28;20731;-86
2021/09/25 11:17:24;;;;;;;3.93;3.63;;;27.20;83.30;;;;;;5025412;28;20621;-85
2021/09/25 11:19:56;;;;;;;3.50;3.20;;;27.30;82.40;;;;;;5027658;28;20637;-86
2021/09/25 11:22:26;;;;;;;4.50;4.20;;;27.40;82.30;;;;;;5020023;28;20657;-87
2021/09/25 11:24:56;;;;;;;3.63;3.33;;;27.30;81.40;;;;;;5023554;28;21179;-86
2021/09/25 11:27:27;;;;;;;3.90;3.70;;;27.50;81.00;;;;;;5024562;28;20631;-86
2021/09/25 11:30:08;;;;;;;3.77;3.47;;;27.10;85.10;;;;;;5024631;28;20608;-85
2021/09/25 11:32:36;;;;;;;4.10;3.90;;;27.50;82.90;;;;;;5024420;28;21228;-86
2021/09/25 11:35:06;;;;;;;4.70;4.30;;;27.60;80.80;;;;;;5022962;28;20723;-85
2021/09/25 11:37:33;;;;;;;4.23;3.93;;;27.80;80.40;;;;;;5023703;28;20630;-86
2021/09/25 11:40:00;;;;;;;4.47;4.07;;;27.60;79.40;;;;;;5022659;28;20627;-85
2021/09/25 11:42:30;;;;;;;4.53;4.07;;;27.60;80.90;;;;;;5026360;28;20665;-86
2021/09/25 11:45:00;;;;;;;7.40;4.60;;;28.40;77.50;;;;;;5022819;28;20622;-85
2021/09/25 11:47:36;;;;;;;4.50;4.00;;;28.40;77.20;;;;;;5025141;28;20634;-86
2021/09/25 11:50:14;;;;;;;5.40;4.20;;;28.60;78.30;;;;;;5024808;28;21039;-86
2021/09/25 11:52:43;;;;;;;4.60;4.30;;;29.10;77.40;;;;;;5022669;28;20654;-85
2021/09/25 11:55:11;;;;;;;4.47;4.10;;;28.80;75.60;;;;;;5025508;28;21229;-85
2021/09/25 11:57:45;;;;;;;4.97;4.60;;;29.10;74.70;;;;;;5026943;28;20730;-86
2021/09/25 12:00:35;;;;;;;5.13;4.67;;;28.80;75.40;;;;;;5027334;28;20606;-86
2021/09/25 12:03:04;;;;;;;4.00;3.70;;;29.20;75.00;;;;;;5019703;28;21101;-86
2021/09/25 12:05:35;;;;;;;4.70;4.40;;;29.60;76.00;;;;;;5024147;28;20623;-85
2021/09/25 12:08:06;;;;;;;4.30;3.90;;;29.50;74.10;;;;;;5023779;28;21355;-85
2021/09/25 12:10:35;;;;;;;4.87;4.47;;;29.50;74.50;;;;;;5023474;28;20631;-85
2021/09/25 12:13:09;;;;;;;4.57;4.27;;;29.90;72.90;;;;;;5023388;28;20739;-86
2021/09/25 12:15:39;;;;;;;4.20;3.90;;;30.00;70.50;;;;;;5023552;28;20621;-85
2021/09/25 12:18:21;;;;;;;4.03;3.73;;;30.20;70.00;;;;;;5028439;28;20674;-86
2021/09/25 12:20:51;;;;;;;4.37;4.07;;;30.00;69.30;;;;;;5023283;28;20639;-85
2021/09/25 12:23:21;;;;;;;5.40;4.33;;;30.00;70.50;;;;;;5027380;28;20627;-86
2021/09/25 12:25:50;;;;;;;5.70;4.00;;;30.40;69.60;;;;;;5026680;28;20622;-91
2021/09/25 12:28:30;;;;;;;4.60;4.20;;;30.10;71.10;;;;;;5044942;28;20622;-91
2021/09/25 12:30:58;;;;;;;4.43;4.03;;;30.90;68.10;;;;;;5034534;28;20634;-90
2021/09/25 12:33:25;;;;;;;6.03;4.13;;;31.40;66.30;;;;;;5036917;28;20692;-92
2021/09/25 12:36:08;;;;;;;3.30;3.10;;;30.80;64.80;;;;;;5032186;28;21400;-91
2021/09/25 12:38:37;;;;;;;5.43;3.70;;;30.60;66.90;;;;;;5024665;28;21297;-92
2021/09/25 12:41:08;;;;;;;3.57;3.23;;;31.60;63.50;;;;;;5027580;28;20626;-90
2021/09/25 12:43:42;;;;;;;3.77;3.57;;;32.60;58.70;;;;;;5021265;28;20626;-88
2021/09/25 12:46:22;;;;;;;4.50;3.97;;;31.70;59.30;;;;;;5026250;28;20214;-89
2021/09/25 12:49:09;;;;;;;5.27;3.80;;;31.20;61.80;;;;;;5026231;28;21025;-90
2021/09/25 12:51:40;;;;;;;3.20;2.90;;;31.10;61.20;;;;;;5027627;28;20775;-90
2021/09/25 12:54:08;;;;;;;3.33;3.03;;;31.30;57.20;;;;;;5024330;28;20576;-91
2021/09/25 12:56:45;;;;;;;3.60;3.30;;;30.70;58.70;;;;;;5023046;28;20638;-89
2021/09/25 12:59:14;;;;;;;4.97;3.40;;;30.70;59.60;;;;;;5025425;28;20775;-89
2021/09/25 13:01:49;;;;;;;3.50;3.03;;;30.30;59.40;;;;;;5023758;28;21272;-89
2021/09/25 13:04:18;;;;;;;3.50;3.30;;;30.20;59.50;;;;;;5029323;28;20653;-91
2021/09/25 13:06:46;;;;;;;3.37;3.07;;;30.50;59.40;;;;;;5026887;28;20630;-89